sensor_id;sensor_type;location;lat;lon;timestamp;P1;durP1;ratioP1;P2;durP2;ratioP2
74291;SDS011;62687;55.738;37.516;2023-03-12T00:00:24;4.63;;;2.53;;
74291;SDS011;62687;55.738;37.516;2023-03-12T00:03:08;5.72;;;2.03;;
74291;SDS011;62687;55.738;37.516;2023-03-12T00:05:53;5.60;;;2.65;;
74291;SDS011;62687;55.738;37.516;2023-03-12T00:08:37;9.00;;;2.55;;
74291;SDS011;62687;55.738;37.516;2023-03-12T00:14:07;2.35;;;1.55;;
74291;SDS011;62687;55.738;37.516;2023-03-12T00:16:50;7.70;;;3.10;;
74291;SDS011;62687;55.738;37.516;2023-03-12T00:19:34;6.20;;;3.08;;
74291;SDS011;62687;55.738;37.516;2023-03-12T00:22:18;4.63;;;2.72;;
74291;SDS011;62687;55.738;37.516;2023-03-12T00:25:06;4.32;;;2.45;;
74291;SDS011;62687;55.738;37.516;2023-03-12T00:27:54;6.75;;;3.13;;
74291;SDS011;62687;55.738;37.516;2023-03-12T00:30:38;8.32;;;2.97;;
74291;SDS011;62687;55.738;37.516;2023-03-12T00:33:26;7.70;;;2.28;;
74291;SDS011;62687;55.738;37.516;2023-03-12T00:36:11;7.70;;;3.55;;
74291;SDS011;62687;55.738;37.516;2023-03-12T00:38:56;5.78;;;2.97;;
74291;SDS011;62687;55.738;37.516;2023-03-12T00:41:42;6.13;;;3.22;;
74291;SDS011;62687;55.738;37.516;2023-03-12T00:44:26;8.85;;;3.42;;
74291;SDS011;62687;55.738;37.516;2023-03-12T00:47:10;6.05;;;3.30;;
74291;SDS011;62687;55.738;37.516;2023-03-12T00:55:23;5.57;;;2.95;;
74291;SDS011;62687;55.738;37.516;2023-03-12T00:58:07;8.25;;;3.03;;
74291;SDS011;62687;55.738;37.516;2023-03-12T01:00:51;6.15;;;2.92;;
74291;SDS011;62687;55.738;37.516;2023-03-12T01:03:36;7.25;;;3.10;;
74291;SDS011;62687;55.738;37.516;2023-03-12T01:06:20;5.82;;;3.17;;
74291;SDS011;62687;55.738;37.516;2023-03-12T01:09:05;7.10;;;3.47;;
74291;SDS011;62687;55.738;37.516;2023-03-12T01:11:50;7.68;;;3.20;;
74291;SDS011;62687;55.738;37.516;2023-03-12T01:14:34;9.93;;;3.47;;
74291;SDS011;62687;55.738;37.516;2023-03-12T01:17:18;6.53;;;3.40;;
74291;SDS011;62687;55.738;37.516;2023-03-12T01:20:02;9.77;;;4.18;;
74291;SDS011;62687;55.738;37.516;2023-03-12T01:22:48;12.32;;;4.00;;
74291;SDS011;62687;55.738;37.516;2023-03-12T01:25:34;11.55;;;4.28;;
74291;SDS011;62687;55.738;37.516;2023-03-12T01:28:20;12.35;;;5.43;;
74291;SDS011;62687;55.738;37.516;2023-03-12T01:31:08;9.38;;;4.35;;
74291;SDS011;62687;55.738;37.516;2023-03-12T01:33:54;12.20;;;5.45;;
74291;SDS011;62687;55.738;37.516;2023-03-12T01:36:38;13.63;;;5.50;;
74291;SDS011;62687;55.738;37.516;2023-03-12T01:39:23;13.82;;;5.78;;
74291;SDS011;62687;55.738;37.516;2023-03-12T01:44:54;12.77;;;4.88;;
74291;SDS011;62687;55.738;37.516;2023-03-12T01:47:43;15.27;;;5.50;;
74291;SDS011;62687;55.738;37.516;2023-03-12T01:50:27;12.57;;;5.50;;
74291;SDS011;62687;55.738;37.516;2023-03-12T01:53:11;14.65;;;5.78;;
74291;SDS011;62687;55.738;37.516;2023-03-12T01:55:56;22.42;;;6.90;;
74291;SDS011;62687;55.738;37.516;2023-03-12T01:58:44;21.90;;;7.10;;
74291;SDS011;62687;55.738;37.516;2023-03-12T02:01:33;18.25;;;5.80;;
74291;SDS011;62687;55.738;37.516;2023-03-12T02:04:18;18.25;;;6.30;;
74291;SDS011;62687;55.738;37.516;2023-03-12T02:07:06;15.43;;;5.85;;
74291;SDS011;62687;55.738;37.516;2023-03-12T02:09:53;14.32;;;6.53;;
74291;SDS011;62687;55.738;37.516;2023-03-12T02:12:37;15.95;;;6.55;;
74291;SDS011;62687;55.738;37.516;2023-03-12T02:15:21;14.18;;;6.35;;
74291;SDS011;62687;55.738;37.516;2023-03-12T02:18:10;16.27;;;5.90;;
74291;SDS011;62687;55.738;37.516;2023-03-12T02:21:21;15.07;;;5.40;;
74291;SDS011;62687;55.738;37.516;2023-03-12T02:27:08;13.18;;;5.60;;
74291;SDS011;62687;55.738;37.516;2023-03-12T02:29:54;14.15;;;6.00;;
74291;SDS011;62687;55.738;37.516;2023-03-12T02:32:38;10.10;;;4.88;;
74291;SDS011;62687;55.738;37.516;2023-03-12T02:35:22;13.50;;;6.13;;
74291;SDS011;62687;55.738;37.516;2023-03-12T02:44:03;15.27;;;5.97;;
74291;SDS011;62687;55.738;37.516;2023-03-12T02:46:53;9.77;;;5.38;;
74291;SDS011;62687;55.738;37.516;2023-03-12T02:49:40;13.18;;;5.35;;
74291;SDS011;62687;55.738;37.516;2023-03-12T02:52:23;10.65;;;5.43;;
74291;SDS011;62687;55.738;37.516;2023-03-12T02:55:08;11.43;;;5.47;;
74291;SDS011;62687;55.738;37.516;2023-03-12T02:57:52;11.23;;;5.03;;
74291;SDS011;62687;55.738;37.516;2023-03-12T03:00:36;8.27;;;5.10;;
74291;SDS011;62687;55.738;37.516;2023-03-12T03:03:20;9.95;;;4.70;;
74291;SDS011;62687;55.738;37.516;2023-03-12T03:06:05;10.23;;;4.60;;
74291;SDS011;62687;55.738;37.516;2023-03-12T03:08:49;11.13;;;4.63;;
74291;SDS011;62687;55.738;37.516;2023-03-12T03:11:33;10.50;;;4.38;;
74291;SDS011;62687;55.738;37.516;2023-03-12T03:14:17;8.73;;;4.88;;
74291;SDS011;62687;55.738;37.516;2023-03-12T03:17:02;13.15;;;8.65;;
74291;SDS011;62687;55.738;37.516;2023-03-12T03:19:47;9.00;;;4.53;;
74291;SDS011;62687;55.738;37.516;2023-03-12T03:22:31;8.32;;;4.75;;
74291;SDS011;62687;55.738;37.516;2023-03-12T03:25:15;11.15;;;4.07;;
74291;SDS011;62687;55.738;37.516;2023-03-12T03:28:00;9.85;;;5.05;;
74291;SDS011;62687;55.738;37.516;2023-03-12T03:30:45;7.93;;;4.15;;
74291;SDS011;62687;55.738;37.516;2023-03-12T03:33:30;10.60;;;4.82;;
74291;SDS011;62687;55.738;37.516;2023-03-12T03:36:16;9.55;;;4.22;;
74291;SDS011;62687;55.738;37.516;2023-03-12T03:41:47;10.57;;;4.57;;
74291;SDS011;62687;55.738;37.516;2023-03-12T03:44:31;9.45;;;5.03;;
74291;SDS011;62687;55.738;37.516;2023-03-12T03:47:15;7.45;;;4.72;;
74291;SDS011;62687;55.738;37.516;2023-03-12T03:49:59;12.00;;;4.40;;
74291;SDS011;62687;55.738;37.516;2023-03-12T03:52:43;9.75;;;4.50;;
74291;SDS011;62687;55.738;37.516;2023-03-12T03:55:27;10.73;;;4.63;;
74291;SDS011;62687;55.738;37.516;2023-03-12T03:58:11;8.93;;;5.25;;
74291;SDS011;62687;55.738;37.516;2023-03-12T04:00:56;12.45;;;5.47;;
74291;SDS011;62687;55.738;37.516;2023-03-12T04:03:40;11.80;;;5.15;;
74291;SDS011;62687;55.738;37.516;2023-03-12T04:06:24;12.75;;;4.90;;
74291;SDS011;62687;55.738;37.516;2023-03-12T04:09:09;12.40;;;5.53;;
74291;SDS011;62687;55.738;37.516;2023-03-12T04:11:53;12.23;;;5.45;;
74291;SDS011;62687;55.738;37.516;2023-03-12T04:14:40;9.15;;;5.07;;
74291;SDS011;62687;55.738;37.516;2023-03-12T04:17:25;12.85;;;5.50;;
74291;SDS011;62687;55.738;37.516;2023-03-12T04:20:08;10.75;;;5.05;;
74291;SDS011;62687;55.738;37.516;2023-03-12T04:22:53;9.70;;;4.78;;
74291;SDS011;62687;55.738;37.516;2023-03-12T04:25:38;12.70;;;6.22;;
74291;SDS011;62687;55.738;37.516;2023-03-12T04:28:22;10.27;;;5.35;;
74291;SDS011;62687;55.738;37.516;2023-03-12T04:31:07;8.57;;;4.68;;
74291;SDS011;62687;55.738;37.516;2023-03-12T04:33:51;10.57;;;5.10;;
74291;SDS011;62687;55.738;37.516;2023-03-12T04:36:35;11.18;;;6.03;;
74291;SDS011;62687;55.738;37.516;2023-03-12T04:39:19;12.25;;;5.10;;
74291;SDS011;62687;55.738;37.516;2023-03-12T04:42:04;10.73;;;5.13;;
74291;SDS011;62687;55.738;37.516;2023-03-12T04:44:49;11.75;;;5.30;;
74291;SDS011;62687;55.738;37.516;2023-03-12T04:47:35;11.27;;;5.57;;
74291;SDS011;62687;55.738;37.516;2023-03-12T04:50:20;9.20;;;5.00;;
74291;SDS011;62687;55.738;37.516;2023-03-12T04:53:04;11.50;;;5.15;;
74291;SDS011;62687;55.738;37.516;2023-03-12T04:55:48;10.30;;;5.10;;
74291;SDS011;62687;55.738;37.516;2023-03-12T04:58:33;9.95;;;4.95;;
74291;SDS011;62687;55.738;37.516;2023-03-12T05:04:08;12.43;;;5.03;;
74291;SDS011;62687;55.738;37.516;2023-03-12T05:06:52;10.73;;;5.65;;
74291;SDS011;62687;55.738;37.516;2023-03-12T05:09:36;9.80;;;6.18;;
74291;SDS011;62687;55.738;37.516;2023-03-12T05:12:20;10.90;;;6.20;;
74291;SDS011;62687;55.738;37.516;2023-03-12T05:15:04;13.55;;;6.40;;
74291;SDS011;62687;55.738;37.516;2023-03-12T05:17:49;10.10;;;6.20;;
74291;SDS011;62687;55.738;37.516;2023-03-12T05:20:33;11.10;;;5.93;;
74291;SDS011;62687;55.738;37.516;2023-03-12T05:23:17;11.60;;;6.60;;
74291;SDS011;62687;55.738;37.516;2023-03-12T05:26:01;8.65;;;5.00;;
74291;SDS011;62687;55.738;37.516;2023-03-12T05:28:45;13.15;;;5.43;;
74291;SDS011;62687;55.738;37.516;2023-03-12T05:31:30;8.55;;;5.10;;
74291;SDS011;62687;55.738;37.516;2023-03-12T05:34:17;9.43;;;4.32;;
74291;SDS011;62687;55.738;37.516;2023-03-12T05:37:02;8.05;;;4.18;;
74291;SDS011;62687;55.738;37.516;2023-03-12T05:39:46;13.40;;;5.45;;
74291;SDS011;62687;55.738;37.516;2023-03-12T05:42:30;9.60;;;4.13;;
74291;SDS011;62687;55.738;37.516;2023-03-12T05:45:14;8.18;;;4.20;;
74291;SDS011;62687;55.738;37.516;2023-03-12T05:47:58;9.65;;;3.72;;
74291;SDS011;62687;55.738;37.516;2023-03-12T05:50:43;9.27;;;4.15;;
74291;SDS011;62687;55.738;37.516;2023-03-12T05:53:27;22.58;;;5.78;;
74291;SDS011;62687;55.738;37.516;2023-03-12T05:56:12;12.55;;;5.38;;
74291;SDS011;62687;55.738;37.516;2023-03-12T05:58:58;10.80;;;4.65;;
74291;SDS011;62687;55.738;37.516;2023-03-12T06:01:42;11.30;;;4.85;;
74291;SDS011;62687;55.738;37.516;2023-03-12T06:04:27;7.78;;;4.05;;
74291;SDS011;62687;55.738;37.516;2023-03-12T06:07:12;9.02;;;4.28;;
74291;SDS011;62687;55.738;37.516;2023-03-12T06:09:56;10.85;;;5.00;;
74291;SDS011;62687;55.738;37.516;2023-03-12T06:12:42;9.93;;;4.30;;
74291;SDS011;62687;55.738;37.516;2023-03-12T06:15:26;15.50;;;5.65;;
74291;SDS011;62687;55.738;37.516;2023-03-12T06:18:10;15.88;;;6.05;;
74291;SDS011;62687;55.738;37.516;2023-03-12T06:20:54;14.30;;;5.72;;
74291;SDS011;62687;55.738;37.516;2023-03-12T06:23:38;13.15;;;6.45;;
74291;SDS011;62687;55.738;37.516;2023-03-12T06:26:22;13.25;;;5.70;;
74291;SDS011;62687;55.738;37.516;2023-03-12T06:29:07;12.27;;;6.55;;
74291;SDS011;62687;55.738;37.516;2023-03-12T06:31:52;12.02;;;4.97;;
74291;SDS011;62687;55.738;37.516;2023-03-12T06:34:36;12.57;;;5.63;;
74291;SDS011;62687;55.738;37.516;2023-03-12T06:37:20;12.73;;;5.20;;
74291;SDS011;62687;55.738;37.516;2023-03-12T06:40:04;13.32;;;6.47;;
74291;SDS011;62687;55.738;37.516;2023-03-12T06:42:52;13.45;;;6.22;;
74291;SDS011;62687;55.738;37.516;2023-03-12T06:45:36;9.95;;;5.43;;
74291;SDS011;62687;55.738;37.516;2023-03-12T06:48:21;12.05;;;5.95;;
74291;SDS011;62687;55.738;37.516;2023-03-12T06:51:07;15.13;;;6.25;;
74291;SDS011;62687;55.738;37.516;2023-03-12T06:53:52;18.58;;;7.25;;
74291;SDS011;62687;55.738;37.516;2023-03-12T06:56:36;16.30;;;6.97;;
74291;SDS011;62687;55.738;37.516;2023-03-12T06:59:21;15.60;;;6.45;;
74291;SDS011;62687;55.738;37.516;2023-03-12T07:02:05;12.90;;;6.88;;
74291;SDS011;62687;55.738;37.516;2023-03-12T07:04:49;14.88;;;7.43;;
74291;SDS011;62687;55.738;37.516;2023-03-12T07:07:33;14.15;;;7.47;;
74291;SDS011;62687;55.738;37.516;2023-03-12T07:10:17;16.52;;;7.60;;
74291;SDS011;62687;55.738;37.516;2023-03-12T07:13:02;17.45;;;7.50;;
74291;SDS011;62687;55.738;37.516;2023-03-12T07:15:46;12.00;;;6.07;;
74291;SDS011;62687;55.738;37.516;2023-03-12T07:18:31;15.25;;;7.50;;
74291;SDS011;62687;55.738;37.516;2023-03-12T07:21:16;16.60;;;7.53;;
74291;SDS011;62687;55.738;37.516;2023-03-12T07:24:05;15.80;;;7.75;;
74291;SDS011;62687;55.738;37.516;2023-03-12T07:29:34;20.98;;;8.30;;
74291;SDS011;62687;55.738;37.516;2023-03-12T07:32:18;15.45;;;6.78;;
74291;SDS011;62687;55.738;37.516;2023-03-12T07:35:03;15.65;;;7.72;;
74291;SDS011;62687;55.738;37.516;2023-03-12T07:37:47;15.68;;;7.57;;
74291;SDS011;62687;55.738;37.516;2023-03-12T07:40:31;16.20;;;8.05;;
74291;SDS011;62687;55.738;37.516;2023-03-12T07:43:15;16.75;;;7.38;;
74291;SDS011;62687;55.738;37.516;2023-03-12T07:46:00;15.82;;;7.60;;
74291;SDS011;62687;55.738;37.516;2023-03-12T07:48:44;13.25;;;7.32;;
74291;SDS011;62687;55.738;37.516;2023-03-12T07:51:28;17.08;;;7.53;;
74291;SDS011;62687;55.738;37.516;2023-03-12T07:54:12;17.25;;;6.88;;
74291;SDS011;62687;55.738;37.516;2023-03-12T07:56:56;11.68;;;7.00;;
74291;SDS011;62687;55.738;37.516;2023-03-12T07:59:40;13.82;;;7.43;;
74291;SDS011;62687;55.738;37.516;2023-03-12T08:02:24;13.98;;;6.88;;
74291;SDS011;62687;55.738;37.516;2023-03-12T08:05:08;14.63;;;5.78;;
74291;SDS011;62687;55.738;37.516;2023-03-12T08:07:53;14.20;;;6.28;;
74291;SDS011;62687;55.738;37.516;2023-03-12T08:10:36;15.27;;;5.90;;
74291;SDS011;62687;55.738;37.516;2023-03-12T08:13:21;10.43;;;5.60;;
74291;SDS011;62687;55.738;37.516;2023-03-12T08:18:50;9.35;;;4.60;;
74291;SDS011;62687;55.738;37.516;2023-03-12T08:21:34;10.10;;;4.95;;
74291;SDS011;62687;55.738;37.516;2023-03-12T08:24:19;5.75;;;3.33;;
74291;SDS011;62687;55.738;37.516;2023-03-12T08:27:04;12.68;;;4.97;;
74291;SDS011;62687;55.738;37.516;2023-03-12T08:29:48;8.63;;;4.55;;
74291;SDS011;62687;55.738;37.516;2023-03-12T08:32:32;9.30;;;4.45;;
74291;SDS011;62687;55.738;37.516;2023-03-12T08:35:17;8.88;;;4.65;;
74291;SDS011;62687;55.738;37.516;2023-03-12T08:38:01;8.50;;;4.40;;
74291;SDS011;62687;55.738;37.516;2023-03-12T08:40:45;11.93;;;4.43;;
74291;SDS011;62687;55.738;37.516;2023-03-12T08:43:28;7.97;;;4.00;;
74291;SDS011;62687;55.738;37.516;2023-03-12T08:46:12;11.57;;;4.47;;
74291;SDS011;62687;55.738;37.516;2023-03-12T08:48:57;7.65;;;4.20;;
74291;SDS011;62687;55.738;37.516;2023-03-12T08:51:41;5.65;;;3.38;;
74291;SDS011;62687;55.738;37.516;2023-03-12T08:54:25;7.88;;;4.43;;
74291;SDS011;62687;55.738;37.516;2023-03-12T08:57:09;9.18;;;4.35;;
74291;SDS011;62687;55.738;37.516;2023-03-12T08:59:53;9.95;;;4.53;;
74291;SDS011;62687;55.738;37.516;2023-03-12T09:02:37;8.85;;;3.90;;
74291;SDS011;62687;55.738;37.516;2023-03-12T09:05:21;9.25;;;4.50;;
74291;SDS011;62687;55.738;37.516;2023-03-12T09:08:05;7.10;;;4.15;;
74291;SDS011;62687;55.738;37.516;2023-03-12T09:10:49;8.85;;;3.92;;
74291;SDS011;62687;55.738;37.516;2023-03-12T09:13:33;5.38;;;3.28;;
74291;SDS011;62687;55.738;37.516;2023-03-12T09:16:17;7.25;;;3.80;;
74291;SDS011;62687;55.738;37.516;2023-03-12T09:19:01;7.30;;;4.07;;
74291;SDS011;62687;55.738;37.516;2023-03-12T09:21:46;5.85;;;3.22;;
74291;SDS011;62687;55.738;37.516;2023-03-12T09:24:29;7.88;;;3.40;;
74291;SDS011;62687;55.738;37.516;2023-03-12T09:27:14;6.03;;;2.78;;
74291;SDS011;62687;55.738;37.516;2023-03-12T09:29:58;7.65;;;3.30;;
74291;SDS011;62687;55.738;37.516;2023-03-12T09:32:42;7.07;;;3.03;;
74291;SDS011;62687;55.738;37.516;2023-03-12T09:35:29;4.97;;;3.10;;
74291;SDS011;62687;55.738;37.516;2023-03-12T09:38:14;5.30;;;2.92;;
74291;SDS011;62687;55.738;37.516;2023-03-12T09:40:58;8.57;;;3.13;;
74291;SDS011;62687;55.738;37.516;2023-03-12T09:43:44;6.75;;;3.88;;
74291;SDS011;62687;55.738;37.516;2023-03-12T09:46:46;6.43;;;3.67;;
74291;SDS011;62687;55.738;37.516;2023-03-12T09:49:37;8.15;;;2.97;;
74291;SDS011;62687;55.738;37.516;2023-03-12T09:55:36;5.80;;;2.50;;
74291;SDS011;62687;55.738;37.516;2023-03-12T10:04:19;9.48;;;3.22;;
74291;SDS011;62687;55.738;37.516;2023-03-12T10:10:18;6.15;;;3.33;;
74291;SDS011;62687;55.738;37.516;2023-03-12T10:19:11;4.90;;;2.30;;
74291;SDS011;62687;55.738;37.516;2023-03-12T10:25:28;4.75;;;2.42;;
74291;SDS011;62687;55.738;37.516;2023-03-12T10:34:15;5.25;;;2.60;;
74291;SDS011;62687;55.738;37.516;2023-03-12T10:37:19;6.78;;;2.00;;
74291;SDS011;62687;55.738;37.516;2023-03-12T10:40:20;4.43;;;1.83;;
74291;SDS011;62687;55.738;37.516;2023-03-12T10:43:09;8.15;;;2.10;;
74291;SDS011;62687;55.738;37.516;2023-03-12T10:46:15;3.55;;;1.75;;
74291;SDS011;62687;55.738;37.516;2023-03-12T10:52:14;3.10;;;1.80;;
74291;SDS011;62687;55.738;37.516;2023-03-12T10:55:09;3.25;;;2.20;;
74291;SDS011;62687;55.738;37.516;2023-03-12T10:58:05;3.05;;;1.70;;
74291;SDS011;62687;55.738;37.516;2023-03-12T11:00:55;4.25;;;1.60;;
74291;SDS011;62687;55.738;37.516;2023-03-12T11:03:41;4.20;;;1.83;;
74291;SDS011;62687;55.738;37.516;2023-03-12T11:06:27;7.40;;;2.20;;
74291;SDS011;62687;55.738;37.516;2023-03-12T11:09:17;13.48;;;2.55;;
74291;SDS011;62687;55.738;37.516;2023-03-12T11:12:03;5.82;;;2.00;;
74291;SDS011;62687;55.738;37.516;2023-03-12T11:15:20;4.05;;;1.88;;
74291;SDS011;62687;55.738;37.516;2023-03-12T11:32:39;3.60;;;1.10;;
74291;SDS011;62687;55.738;37.516;2023-03-12T11:35:43;3.95;;;1.02;;
74291;SDS011;62687;55.738;37.516;2023-03-12T11:42:07;2.78;;;0.98;;
74291;SDS011;62687;55.738;37.516;2023-03-12T11:48:21;0.93;;;0.40;;
74291;SDS011;62687;55.738;37.516;2023-03-12T11:54:36;0.70;;;0.22;;
74291;SDS011;62687;55.738;37.516;2023-03-12T12:00:16;1.70;;;0.40;;
74291;SDS011;62687;55.738;37.516;2023-03-12T12:06:15;1.08;;;0.30;;
74291;SDS011;62687;55.738;37.516;2023-03-12T12:09:24;2.65;;;0.38;;
74291;SDS011;62687;55.738;37.516;2023-03-12T12:15:26;1.45;;;0.50;;
74291;SDS011;62687;55.738;37.516;2023-03-12T12:34:36;2.03;;;0.40;;
74291;SDS011;62687;55.738;37.516;2023-03-12T12:40:33;0.82;;;0.20;;
74291;SDS011;62687;55.738;37.516;2023-03-12T12:43:27;1.88;;;0.50;;
74291;SDS011;62687;55.738;37.516;2023-03-12T12:46:27;0.90;;;0.40;;
74291;SDS011;62687;55.738;37.516;2023-03-12T12:49:20;0.60;;;0.10;;
74291;SDS011;62687;55.738;37.516;2023-03-12T12:52:11;1.65;;;0.60;;
74291;SDS011;62687;55.738;37.516;2023-03-12T12:55:13;1.60;;;0.40;;
74291;SDS011;62687;55.738;37.516;2023-03-12T12:58:04;2.40;;;0.55;;
74291;SDS011;62687;55.738;37.516;2023-03-12T13:00:59;0.90;;;0.25;;
74291;SDS011;62687;55.738;37.516;2023-03-12T13:03:45;0.90;;;0.25;;
74291;SDS011;62687;55.738;37.516;2023-03-12T13:06:51;0.82;;;0.22;;
74291;SDS011;62687;55.738;37.516;2023-03-12T13:12:56;1.08;;;0.55;;
74291;SDS011;62687;55.738;37.516;2023-03-12T13:15:40;3.53;;;1.10;;
74291;SDS011;62687;55.738;37.516;2023-03-12T13:18:26;1.35;;;0.30;;
74291;SDS011;62687;55.738;37.516;2023-03-12T13:24:09;0.52;;;0.28;;
74291;SDS011;62687;55.738;37.516;2023-03-12T13:33:18;0.90;;;0.30;;
74291;SDS011;62687;55.738;37.516;2023-03-12T13:36:21;0.63;;;0.20;;
74291;SDS011;62687;55.738;37.516;2023-03-12T13:39:16;1.05;;;0.40;;
74291;SDS011;62687;55.738;37.516;2023-03-12T13:42:53;1.73;;;0.40;;
74291;SDS011;62687;55.738;37.516;2023-03-12T13:45:22;3.22;;;0.40;;
74291;SDS011;62687;55.738;37.516;2023-03-12T13:48:15;0.68;;;0.30;;
74291;SDS011;62687;55.738;37.516;2023-03-12T13:51:16;1.42;;;0.50;;
74291;SDS011;62687;55.738;37.516;2023-03-12T13:54:02;0.52;;;0.25;;
74291;SDS011;62687;55.738;37.516;2023-03-12T13:57:48;0.60;;;0.20;;
74291;SDS011;62687;55.738;37.516;2023-03-12T14:00:19;1.90;;;0.55;;
74291;SDS011;62687;55.738;37.516;2023-03-12T14:05:56;2.55;;;0.35;;
74291;SDS011;62687;55.738;37.516;2023-03-12T14:14:34;5.07;;;2.25;;
74291;SDS011;62687;55.738;37.516;2023-03-12T14:17:24;1.35;;;0.60;;
74291;SDS011;62687;55.738;37.516;2023-03-12T14:20:18;4.30;;;1.40;;
74291;SDS011;62687;55.738;37.516;2023-03-12T14:23:05;3.25;;;0.80;;
74291;SDS011;62687;55.738;37.516;2023-03-12T14:28:42;1.45;;;0.30;;
74291;SDS011;62687;55.738;37.516;2023-03-12T14:31:28;2.25;;;0.73;;
74291;SDS011;62687;55.738;37.516;2023-03-12T14:34:17;2.83;;;1.23;;
74291;SDS011;62687;55.738;37.516;2023-03-12T14:37:12;1.63;;;0.38;;
74291;SDS011;62687;55.738;37.516;2023-03-12T14:40:05;1.33;;;0.30;;
74291;SDS011;62687;55.738;37.516;2023-03-12T14:43:01;2.45;;;1.20;;
74291;SDS011;62687;55.738;37.516;2023-03-12T14:45:48;1.27;;;0.30;;
74291;SDS011;62687;55.738;37.516;2023-03-12T14:48:35;2.83;;;1.13;;
74291;SDS011;62687;55.738;37.516;2023-03-12T14:51:21;1.70;;;0.45;;
74291;SDS011;62687;55.738;37.516;2023-03-12T14:54:17;2.08;;;0.63;;
74291;SDS011;62687;55.738;37.516;2023-03-12T14:57:03;2.95;;;1.05;;
74291;SDS011;62687;55.738;37.516;2023-03-12T14:59:51;1.77;;;0.60;;
74291;SDS011;62687;55.738;37.516;2023-03-12T15:02:38;0.22;;;0.10;;
74291;SDS011;62687;55.738;37.516;2023-03-12T15:05:24;1.40;;;0.40;;
74291;SDS011;62687;55.738;37.516;2023-03-12T15:08:09;2.30;;;0.70;;
74291;SDS011;62687;55.738;37.516;2023-03-12T15:10:56;1.70;;;0.43;;
74291;SDS011;62687;55.738;37.516;2023-03-12T15:13:41;1.73;;;0.60;;
74291;SDS011;62687;55.738;37.516;2023-03-12T15:16:25;1.52;;;0.35;;
74291;SDS011;62687;55.738;37.516;2023-03-12T15:19:11;0.98;;;0.28;;
74291;SDS011;62687;55.738;37.516;2023-03-12T15:21:57;2.15;;;0.70;;
74291;SDS011;62687;55.738;37.516;2023-03-12T15:24:41;8.82;;;1.48;;
74291;SDS011;62687;55.738;37.516;2023-03-12T15:30:21;1.77;;;0.60;;
74291;SDS011;62687;55.738;37.516;2023-03-12T15:33:08;2.67;;;1.02;;
74291;SDS011;62687;55.738;37.516;2023-03-12T15:35:58;3.90;;;1.67;;
74291;SDS011;62687;55.738;37.516;2023-03-12T15:38:48;2.95;;;1.13;;
74291;SDS011;62687;55.738;37.516;2023-03-12T15:41:45;3.72;;;1.52;;
74291;SDS011;62687;55.738;37.516;2023-03-12T15:44:53;2.03;;;0.90;;
74291;SDS011;62687;55.738;37.516;2023-03-12T15:47:38;3.85;;;1.90;;
74291;SDS011;62687;55.738;37.516;2023-03-12T15:50:30;4.72;;;1.98;;
74291;SDS011;62687;55.738;37.516;2023-03-12T15:53:28;3.60;;;1.50;;
74291;SDS011;62687;55.738;37.516;2023-03-12T16:01:59;2.80;;;0.85;;
74291;SDS011;62687;55.738;37.516;2023-03-12T16:04:43;7.18;;;2.03;;
74291;SDS011;62687;55.738;37.516;2023-03-12T16:07:27;2.60;;;1.30;;
74291;SDS011;62687;55.738;37.516;2023-03-12T16:10:12;2.33;;;1.10;;
74291;SDS011;62687;55.738;37.516;2023-03-12T16:12:59;1.67;;;0.90;;
74291;SDS011;62687;55.738;37.516;2023-03-12T16:15:45;2.22;;;1.00;;
74291;SDS011;62687;55.738;37.516;2023-03-12T16:18:29;3.60;;;0.88;;
74291;SDS011;62687;55.738;37.516;2023-03-12T16:21:13;1.98;;;1.13;;
74291;SDS011;62687;55.738;37.516;2023-03-12T16:23:57;2.83;;;1.00;;
74291;SDS011;62687;55.738;37.516;2023-03-12T16:26:46;2.17;;;0.60;;
74291;SDS011;62687;55.738;37.516;2023-03-12T16:29:33;2.15;;;1.10;;
74291;SDS011;62687;55.738;37.516;2023-03-12T16:32:19;1.48;;;0.82;;
74291;SDS011;62687;55.738;37.516;2023-03-12T16:35:11;2.67;;;1.05;;
74291;SDS011;62687;55.738;37.516;2023-03-12T16:37:59;2.42;;;1.25;;
74291;SDS011;62687;55.738;37.516;2023-03-12T16:40:45;8.18;;;2.72;;
74291;SDS011;62687;55.738;37.516;2023-03-12T16:43:31;3.78;;;1.40;;
74291;SDS011;62687;55.738;37.516;2023-03-12T16:46:20;2.25;;;1.08;;
74291;SDS011;62687;55.738;37.516;2023-03-12T16:49:05;4.57;;;2.22;;
74291;SDS011;62687;55.738;37.516;2023-03-12T16:51:50;6.13;;;2.53;;
74291;SDS011;62687;55.738;37.516;2023-03-12T16:54:46;4.18;;;1.23;;
74291;SDS011;62687;55.738;37.516;2023-03-12T17:03:37;3.33;;;1.40;;
74291;SDS011;62687;55.738;37.516;2023-03-12T17:10:25;2.17;;;1.15;;
74291;SDS011;62687;55.738;37.516;2023-03-12T17:13:43;5.68;;;2.40;;
74291;SDS011;62687;55.738;37.516;2023-03-12T17:16:46;2.25;;;1.33;;
74291;SDS011;62687;55.738;37.516;2023-03-12T17:19:42;3.85;;;1.42;;
74291;SDS011;62687;55.738;37.516;2023-03-12T17:22:50;2.00;;;1.05;;
74291;SDS011;62687;55.738;37.516;2023-03-12T17:25:48;2.95;;;0.85;;
74291;SDS011;62687;55.738;37.516;2023-03-12T17:28:37;1.40;;;0.52;;
74291;SDS011;62687;55.738;37.516;2023-03-12T17:31:28;2.33;;;0.85;;
74291;SDS011;62687;55.738;37.516;2023-03-12T17:34:28;2.90;;;1.05;;
74291;SDS011;62687;55.738;37.516;2023-03-12T17:37:18;5.57;;;1.33;;
74291;SDS011;62687;55.738;37.516;2023-03-12T17:40:12;5.65;;;2.13;;
74291;SDS011;62687;55.738;37.516;2023-03-12T17:43:21;9.18;;;3.53;;
74291;SDS011;62687;55.738;37.516;2023-03-12T17:46:21;1.55;;;0.70;;
74291;SDS011;62687;55.738;37.516;2023-03-12T17:52:09;1.45;;;0.80;;
74291;SDS011;62687;55.738;37.516;2023-03-12T17:55:42;2.17;;;1.00;;
74291;SDS011;62687;55.738;37.516;2023-03-12T17:58:26;2.17;;;1.38;;
74291;SDS011;62687;55.738;37.516;2023-03-12T18:01:10;4.70;;;1.60;;
74291;SDS011;62687;55.738;37.516;2023-03-12T18:03:55;1.85;;;0.77;;
74291;SDS011;62687;55.738;37.516;2023-03-12T18:06:39;1.52;;;1.02;;
74291;SDS011;62687;55.738;37.516;2023-03-12T18:09:23;6.05;;;0.93;;
74291;SDS011;62687;55.738;37.516;2023-03-12T18:12:07;1.92;;;1.05;;
74291;SDS011;62687;55.738;37.516;2023-03-12T18:14:52;2.40;;;0.82;;
74291;SDS011;62687;55.738;37.516;2023-03-12T18:17:37;2.88;;;1.05;;
74291;SDS011;62687;55.738;37.516;2023-03-12T18:20:22;3.25;;;1.10;;
74291;SDS011;62687;55.738;37.516;2023-03-12T18:23:06;1.58;;;0.57;;
74291;SDS011;62687;55.738;37.516;2023-03-12T18:25:50;2.72;;;1.08;;
74291;SDS011;62687;55.738;37.516;2023-03-12T18:28:34;1.35;;;0.70;;
74291;SDS011;62687;55.738;37.516;2023-03-12T18:31:18;2.03;;;0.77;;
74291;SDS011;62687;55.738;37.516;2023-03-12T18:34:02;1.33;;;0.55;;
74291;SDS011;62687;55.738;37.516;2023-03-12T18:36:46;0.70;;;0.30;;
74291;SDS011;62687;55.738;37.516;2023-03-12T18:39:30;1.23;;;0.50;;
74291;SDS011;62687;55.738;37.516;2023-03-12T18:42:14;1.60;;;0.60;;
74291;SDS011;62687;55.738;37.516;2023-03-12T18:44:58;1.80;;;0.60;;
74291;SDS011;62687;55.738;37.516;2023-03-12T18:47:42;1.25;;;0.45;;
74291;SDS011;62687;55.738;37.516;2023-03-12T18:50:28;0.47;;;0.15;;
74291;SDS011;62687;55.738;37.516;2023-03-12T18:53:12;1.60;;;0.60;;
74291;SDS011;62687;55.738;37.516;2023-03-12T18:55:56;1.75;;;0.60;;
74291;SDS011;62687;55.738;37.516;2023-03-12T18:58:41;1.02;;;0.25;;
74291;SDS011;62687;55.738;37.516;2023-03-12T19:01:25;1.75;;;0.65;;
74291;SDS011;62687;55.738;37.516;2023-03-12T19:04:09;1.05;;;0.40;;
74291;SDS011;62687;55.738;37.516;2023-03-12T19:06:58;1.08;;;0.77;;
74291;SDS011;62687;55.738;37.516;2023-03-12T19:09:45;2.95;;;0.60;;